Time;durP1;ratioP1;P1;durP2;ratioP2;P2;SDS_P1;SDS_P2;PMS_P1;PMS_P2;Temp;Humidity;BMP_temperature;BMP_pressure;BME280_temperature;BME280_humidity;BME280_pressure;Samples;Min_cycle;Max_cycle;Signal;HPM_P1;HPM_P2
2022/03/24 00:00:39;;;;;;;14.25;8.98;;;;;13.60;102843.00;;;;4988723;28;20193;-77
2022/03/24 00:03:07;;;;;;;19.17;10.50;;;;;13.60;102846.00;;;;4989344;28;20223;-77
2022/03/24 00:05:34;;;;;;;16.02;10.20;;;;;13.60;102834.00;;;;4989891;28;20204;-76
2022/03/24 00:08:02;;;;;;;18.05;11.00;;;;;13.60;102839.00;;;;4994308;28;20308;-77
2022/03/24 00:10:31;;;;;;;19.98;11.32;;;;;13.60;102833.00;;;;4998206;28;20202;-77
2022/03/24 00:12:58;;;;;;;18.23;11.07;;;;;13.60;102835.00;;;;4997310;28;20233;-77
2022/03/24 00:15:26;;;;;;;19.27;10.65;;;;;13.60;102839.00;;;;5011679;28;20229;-76
2022/03/24 00:17:53;;;;;;;16.05;10.75;;;;;13.50;102830.00;;;;4996929;28;20284;-75
2022/03/24 00:20:20;;;;;;;18.27;10.88;;;;;13.50;102837.00;;;;4987341;28;20209;-75
2022/03/24 00:22:48;;;;;;;18.90;11.25;;;;;13.50;102833.00;;;;4989607;28;20205;-76
2022/03/24 00:25:15;;;;;;;17.92;11.27;;;;;13.50;102830.00;;;;4988727;28;20244;-76
2022/03/24 00:27:43;;;;;;;17.73;10.90;;;;;13.50;102835.00;;;;4991215;28;20664;-76
2022/03/24 00:30:12;;;;;;;17.73;9.65;;;;;13.50;102830.00;;;;4992875;28;20202;-76
2022/03/24 00:32:39;;;;;;;16.25;10.63;;;;;13.50;102833.00;;;;4981891;28;20496;-76
2022/03/24 00:35:08;;;;;;;15.45;10.52;;;;;13.50;102835.00;;;;4990157;28;20209;-76
2022/03/24 00:37:35;;;;;;;18.10;9.80;;;;;13.50;102824.00;;;;4989498;28;20205;-76
2022/03/24 00:40:06;;;;;;;14.10;9.43;;;;;13.50;102829.00;;;;4988985;28;20200;-76
2022/03/24 00:42:35;;;;;;;15.80;9.35;;;;;13.40;102828.00;;;;4989939;28;20193;-76
2022/03/24 00:45:05;;;;;;;13.48;8.73;;;;;13.40;102828.00;;;;4994369;28;20236;-76
2022/03/24 00:47:32;;;;;;;14.77;7.97;;;;;13.40;102828.00;;;;4994420;28;20229;-76
2022/03/24 00:49:59;;;;;;;14.45;8.57;;;;;13.40;102820.00;;;;4990068;28;20193;-76
2022/03/24 00:52:27;;;;;;;15.63;9.27;;;;;13.30;102820.00;;;;4989641;28;20373;-76
2022/03/24 00:54:54;;;;;;;15.05;8.77;;;;;13.30;102816.00;;;;4990396;28;20359;-76
2022/03/24 00:57:21;;;;;;;14.50;8.45;;;;;13.20;102822.00;;;;4989950;28;21197;-76
2022/03/24 00:59:49;;;;;;;13.48;8.40;;;;;13.20;102812.00;;;;4992082;28;20670;-76
2022/03/24 01:02:17;;;;;;;13.85;7.72;;;;;13.10;102814.00;;;;5002703;28;20204;-76
2022/03/24 01:04:44;;;;;;;13.55;7.60;;;;;13.10;102816.00;;;;4988093;28;20194;-76
2022/03/24 01:07:12;;;;;;;15.23;8.82;;;;;13.10;102809.00;;;;4989265;28;20194;-76
2022/03/24 01:09:39;;;;;;;13.63;8.45;;;;;13.00;102804.00;;;;4988224;28;20221;-76
2022/03/24 01:12:07;;;;;;;14.23;8.18;;;;;13.00;102799.00;;;;4988248;28;20227;-76
2022/03/24 01:14:35;;;;;;;12.98;8.50;;;;;12.90;102804.00;;;;4988626;28;20241;-76
2022/03/24 01:17:05;;;;;;;14.07;9.20;;;;;12.90;102806.00;;;;4987924;28;20199;-76
2022/03/24 01:19:34;;;;;;;16.48;8.70;;;;;12.90;102807.00;;;;4990144;28;20225;-76
2022/03/24 01:22:01;;;;;;;14.02;8.63;;;;;12.80;102809.00;;;;4988967;28;20201;-76
2022/03/24 01:24:29;;;;;;;17.23;9.10;;;;;12.80;102803.00;;;;4988822;28;20190;-76
2022/03/24 01:26:56;;;;;;;15.00;9.35;;;;;12.80;102799.00;;;;4988269;28;20244;-76
2022/03/24 01:29:23;;;;;;;14.85;9.43;;;;;12.70;102794.00;;;;4992070;28;20194;-77
2022/03/24 01:31:51;;;;;;;14.13;9.10;;;;;12.70;102792.00;;;;4988890;28;20252;-76
2022/03/24 01:34:19;;;;;;;14.88;9.57;;;;;12.70;102801.00;;;;4987256;28;20202;-76
2022/03/24 01:36:47;;;;;;;16.80;9.68;;;;;12.60;102797.00;;;;4998456;28;20209;-76
2022/03/24 01:39:14;;;;;;;13.32;8.98;;;;;12.60;102791.00;;;;4996205;28;20209;-76
2022/03/24 01:41:42;;;;;;;15.55;10.07;;;;;12.60;102793.00;;;;4989120;28;20209;-76
2022/03/24 01:44:13;;;;;;;16.55;10.00;;;;;12.50;102790.00;;;;4987191;28;20194;-76
2022/03/24 01:46:55;;;;;;;19.80;10.75;;;;;12.40;102788.00;;;;4988605;28;20739;-76
2022/03/24 01:49:24;;;;;;;17.92;9.60;;;;;12.50;102789.00;;;;4988694;28;20221;-76
2022/03/24 01:51:52;;;;;;;15.35;9.45;;;;;12.40;102786.00;;;;4989894;28;20202;-76
2022/03/24 01:54:21;;;;;;;23.17;10.38;;;;;12.40;102787.00;;;;4994625;28;20204;-76
2022/03/24 01:56:49;;;;;;;16.70;9.50;;;;;12.40;102787.00;;;;4992019;28;20190;-76
2022/03/24 01:59:19;;;;;;;15.18;10.23;;;;;12.40;102788.00;;;;4994158;28;20222;-76
2022/03/24 02:01:47;;;;;;;16.52;10.13;;;;;12.30;102782.00;;;;4994327;28;20228;-76
2022/03/24 02:04:16;;;;;;;15.32;9.77;;;;;12.30;102778.00;;;;4993510;28;20197;-76
2022/03/24 02:06:44;;;;;;;18.77;9.85;;;;;12.30;102776.00;;;;4995736;28;20205;-76
2022/03/24 02:09:13;;;;;;;15.82;10.30;;;;;12.20;102780.00;;;;4994923;28;20240;-76
2022/03/24 02:11:41;;;;;;;16.60;10.15;;;;;12.20;102778.00;;;;4998281;28;20205;-76
2022/03/24 02:14:09;;;;;;;15.50;10.85;;;;;12.20;102782.00;;;;4991486;28;20225;-76
2022/03/24 02:16:39;;;;;;;17.75;9.93;;;;;12.20;102777.00;;;;4992992;28;20284;-76
2022/03/24 02:19:13;;;;;;;17.30;10.73;;;;;12.10;102777.00;;;;4991914;28;20333;-76
2022/03/24 02:21:41;;;;;;;17.23;9.50;;;;;12.10;102768.00;;;;4991579;28;20208;-76
2022/03/24 02:24:12;;;;;;;16.75;10.25;;;;;12.10;102766.00;;;;4992327;28;20200;-76
2022/03/24 02:26:42;;;;;;;16.73;9.88;;;;;12.00;102767.00;;;;4992964;28;20218;-76
2022/03/24 02:29:11;;;;;;;19.13;10.57;;;;;12.00;102768.00;;;;5003531;28;20554;-76
2022/03/24 02:31:39;;;;;;;16.15;10.73;;;;;12.00;102760.00;;;;4991552;28;20193;-76
2022/03/24 02:37:10;;;;;;;14.70;9.95;;;;;11.90;102760.00;;;;4969968;28;20200;-76
2022/03/24 02:39:40;;;;;;;17.63;9.57;;;;;11.90;102761.00;;;;4970077;28;20209;-76
2022/03/24 02:42:09;;;;;;;15.70;10.52;;;;;11.90;102764.00;;;;4979216;28;20209;-77
2022/03/24 02:44:37;;;;;;;15.40;9.65;;;;;11.80;102766.00;;;;5001893;28;20257;-77
2022/03/24 02:47:06;;;;;;;17.38;10.27;;;;;11.80;102761.00;;;;4995574;28;20264;-77
2022/03/24 02:49:35;;;;;;;14.68;8.98;;;;;11.80;102764.00;;;;4992998;28;20221;-77
2022/03/24 02:52:03;;;;;;;15.82;10.02;;;;;11.80;102762.00;;;;4992373;28;20194;-77
2022/03/24 02:54:32;;;;;;;16.50;9.43;;;;;11.70;102764.00;;;;4992022;28;20220;-77
2022/03/24 02:57:01;;;;;;;17.77;10.48;;;;;11.70;102762.00;;;;4992585;28;20205;-76
2022/03/24 02:59:29;;;;;;;15.98;9.65;;;;;11.70;102762.00;;;;4991116;28;20633;-77
2022/03/24 03:01:58;;;;;;;15.07;9.90;;;;;11.70;102770.00;;;;4995532;28;20689;-76
2022/03/24 03:04:25;;;;;;;12.93;8.52;;;;;11.70;102763.00;;;;4990752;28;20576;-76
2022/03/24 03:06:53;;;;;;;15.65;9.88;;;;;11.60;102766.00;;;;4991473;28;20200;-76
2022/03/24 03:09:21;;;;;;;14.85;9.52;;;;;11.60;102762.00;;;;4993546;28;20217;-76
2022/03/24 03:11:50;;;;;;;19.05;10.50;;;;;11.60;102760.00;;;;4989588;28;20194;-77
2022/03/24 03:14:19;;;;;;;15.98;9.57;;;;;11.60;102762.00;;;;4990120;28;20217;-76
2022/03/24 03:16:47;;;;;;;14.60;9.40;;;;;11.60;102766.00;;;;4990291;28;20268;-76
2022/03/24 03:19:17;;;;;;;15.48;10.55;;;;;11.50;102759.00;;;;4996972;28;20214;-76
2022/03/24 03:21:44;;;;;;;15.45;9.88;;;;;11.50;102766.00;;;;4989786;28;20621;-76
2022/03/24 03:24:12;;;;;;;18.15;9.70;;;;;11.50;102766.00;;;;4989044;28;20202;-77
2022/03/24 03:26:39;;;;;;;16.00;10.35;;;;;11.50;102769.00;;;;4973801;28;20236;-76
2022/03/24 03:29:08;;;;;;;15.23;9.05;;;;;11.50;102764.00;;;;4990218;28;20194;-76
2022/03/24 03:31:37;;;;;;;13.85;9.02;;;;;11.40;102764.00;;;;4988331;28;20241;-77
2022/03/24 03:34:06;;;;;;;13.85;8.90;;;;;11.40;102763.00;;;;4989360;28;20225;-76
2022/03/24 03:36:33;;;;;;;14.45;8.75;;;;;11.40;102757.00;;;;4991692;28;20209;-76
2022/03/24 03:39:01;;;;;;;12.93;8.82;;;;;11.40;102765.00;;;;4990008;28;20194;-76
2022/03/24 03:41:28;;;;;;;14.10;9.75;;;;;11.40;102767.00;;;;4989396;28;20260;-76
2022/03/24 03:43:56;;;;;;;12.35;9.00;;;;;11.40;102759.00;;;;4990094;28;20280;-76
2022/03/24 03:46:25;;;;;;;15.13;9.88;;;;;11.40;102757.00;;;;4991514;28;20209;-76
2022/03/24 03:48:54;;;;;;;15.80;9.75;;;;;11.30;102765.00;;;;4991703;28;20252;-76
2022/03/24 03:51:21;;;;;;;15.40;9.85;;;;;11.30;102759.00;;;;4979917;28;20209;-76
2022/03/24 03:53:49;;;;;;;14.77;9.80;;;;;11.30;102760.00;;;;4991197;28;20225;-76
2022/03/24 03:56:16;;;;;;;18.10;10.07;;;;;11.30;102761.00;;;;4993372;28;20202;-76
2022/03/24 03:58:43;;;;;;;14.93;9.48;;;;;11.30;102767.00;;;;5005056;28;20699;-76
2022/03/24 04:01:10;;;;;;;13.65;9.23;;;;;11.30;102759.00;;;;4989197;28;20197;-76
2022/03/24 04:03:40;;;;;;;20.50;9.68;;;;;11.30;102767.00;;;;4988995;28;20664;-76
2022/03/24 04:06:10;;;;;;;17.27;10.10;;;;;11.30;102763.00;;;;4989308;28;20212;-76
2022/03/24 04:08:38;;;;;;;15.52;9.27;;;;;11.30;102759.00;;;;4971392;28;20225;-76
2022/03/24 04:11:07;;;;;;;16.45;10.57;;;;;11.30;102763.00;;;;4980931;28;20657;-76
2022/03/24 04:13:35;;;;;;;17.13;10.35;;;;;11.30;102761.00;;;;4969942;28;20222;-76
2022/03/24 04:16:03;;;;;;;15.57;9.65;;;;;11.30;102766.00;;;;4969364;28;20312;-76
2022/03/24 04:18:30;;;;;;;16.77;9.75;;;;;11.30;102764.00;;;;4968502;28;20198;-77
2022/03/24 04:20:58;;;;;;;15.15;9.20;;;;;11.20;102760.00;;;;4969165;28;20210;-76
2022/03/24 04:23:26;;;;;;;19.33;10.07;;;;;11.20;102753.00;;;;4967616;28;20257;-76
2022/03/24 04:25:53;;;;;;;15.93;10.55;;;;;11.30;102758.00;;;;4979715;28;20210;-76
2022/03/24 04:28:21;;;;;;;16.48;9.48;;;;;11.20;102756.00;;;;4973134;28;20301;-76
2022/03/24 04:30:48;;;;;;;21.02;9.88;;;;;11.20;102761.00;;;;4972296;28;20673;-76
2022/03/24 04:33:15;;;;;;;19.88;10.88;;;;;11.30;102762.00;;;;4969384;28;20743;-76
2022/03/24 04:35:44;;;;;;;15.90;9.65;;;;;11.20;102759.00;;;;4969254;28;20616;-76
2022/03/24 04:38:12;;;;;;;18.00;10.05;;;;;11.20;102759.00;;;;4949969;29;20674;-77
2022/03/24 04:40:41;;;;;;;16.67;10.73;;;;;11.20;102753.00;;;;4954695;28;20225;-76
2022/03/24 04:43:08;;;;;;;16.85;10.65;;;;;11.20;102763.00;;;;4973120;28;20213;-77
2022/03/24 04:45:35;;;;;;;15.57;9.43;;;;;11.20;102755.00;;;;4951047;28;20242;-76
2022/03/24 04:48:04;;;;;;;15.13;9.93;;;;;11.20;102760.00;;;;4968788;28;20201;-76
2022/03/24 04:50:31;;;;;;;18.60;10.15;;;;;11.20;102763.00;;;;4968303;28;20297;-76
2022/03/24 04:52:58;;;;;;;15.45;9.57;;;;;11.20;102764.00;;;;4968632;28;20214;-76
2022/03/24 04:55:25;;;;;;;15.18;9.32;;;;;11.20;102764.00;;;;4969272;28;20202;-76
2022/03/24 04:57:54;;;;;;;15.57;9.68;;;;;11.20;102762.00;;;;4969422;28;20933;-76
2022/03/24 05:00:22;;;;;;;15.23;9.73;;;;;11.20;102757.00;;;;4972832;28;20209;-76
2022/03/24 05:02:49;;;;;;;16.73;9.65;;;;;11.20;102758.00;;;;4970044;28;20277;-76
2022/03/24 05:05:17;;;;;;;15.02;9.77;;;;;11.10;102755.00;;;;4968935;28;20202;-76
2022/03/24 05:07:44;;;;;;;15.10;9.63;;;;;11.10;102760.00;;;;4968814;28;20665;-76
2022/03/24 05:10:12;;;;;;;17.85;10.25;;;;;11.10;102763.00;;;;4967417;28;20214;-76
2022/03/24 05:12:40;;;;;;;16.40;10.07;;;;;11.10;102761.00;;;;4968964;28;20753;-76
2022/03/24 05:15:12;;;;;;;13.93;8.90;;;;;11.00;102760.00;;;;4968354;28;20233;-76
2022/03/24 05:17:40;;;;;;;16.90;9.77;;;;;11.10;102758.00;;;;4975444;28;20663;-76
2022/03/24 05:20:08;;;;;;;15.63;10.00;;;;;11.00;102756.00;;;;4971943;28;20199;-76
2022/03/24 05:22:36;;;;;;;13.93;9.93;;;;;11.00;102767.00;;;;4968432;28;20202;-76
2022/03/24 05:25:06;;;;;;;14.27;9.15;;;;;11.00;102766.00;;;;4967570;28;20262;-77
2022/03/24 05:27:33;;;;;;;15.98;9.88;;;;;11.00;102763.00;;;;4968366;28;20222;-76
2022/03/24 05:30:00;;;;;;;16.05;9.65;;;;;11.00;102765.00;;;;4968832;28;20207;-77
2022/03/24 05:32:29;;;;;;;14.23;9.15;;;;;10.90;102770.00;;;;4972232;28;20202;-77
2022/03/24 05:34:56;;;;;;;14.60;8.90;;;;;10.90;102769.00;;;;4982330;28;20230;-76
2022/03/24 05:37:23;;;;;;;13.38;8.77;;;;;10.90;102768.00;;;;4971809;28;20206;-76
2022/03/24 05:39:51;;;;;;;15.00;9.07;;;;;10.90;102768.00;;;;4971293;28;20206;-76
2022/03/24 05:42:19;;;;;;;16.38;9.77;;;;;10.90;102768.00;;;;4971835;28;20309;-76
2022/03/24 05:44:46;;;;;;;15.95;9.25;;;;;10.90;102771.00;;;;4972092;28;20205;-76
2022/03/24 05:47:14;;;;;;;15.90;10.02;;;;;10.90;102771.00;;;;4970702;28;20257;-76
2022/03/24 05:49:42;;;;;;;15.55;9.48;;;;;10.80;102771.00;;;;4971354;28;20207;-76
2022/03/24 05:52:10;;;;;;;16.13;10.30;;;;;10.80;102772.00;;;;4975779;28;20206;-76
2022/03/24 05:54:37;;;;;;;16.35;8.73;;;;;10.80;102774.00;;;;4971837;28;20522;-76
2022/03/24 05:57:05;;;;;;;18.40;9.32;;;;;10.80;102769.00;;;;4968344;28;20198;-76
2022/03/24 05:59:32;;;;;;;14.25;9.18;;;;;10.80;102781.00;;;;4971699;28;20206;-76
2022/03/24 06:02:00;;;;;;;14.48;9.57;;;;;10.80;102781.00;;;;4971807;28;20221;-76
2022/03/24 06:04:29;;;;;;;13.23;9.05;;;;;10.80;102780.00;;;;4972818;28;20677;-76
2022/03/24 06:06:58;;;;;;;14.20;9.65;;;;;10.80;102783.00;;;;4970608;28;20202;-76
2022/03/24 06:09:27;;;;;;;14.63;9.25;;;;;10.80;102782.00;;;;4978302;28;20229;-76
2022/03/24 06:11:56;;;;;;;13.43;8.77;;;;;10.90;102783.00;;;;4972461;28;20600;-76
2022/03/24 06:14:25;;;;;;;18.48;9.40;;;;;10.90;102782.00;;;;4971394;28;20229;-76
2022/03/24 06:16:52;;;;;;;15.73;9.52;;;;;10.90;102782.00;;;;4972288;28;20231;-76
2022/03/24 06:19:20;;;;;;;12.27;9.20;;;;;10.90;102792.00;;;;4971927;28;20317;-75
2022/03/24 06:21:48;;;;;;;14.20;9.48;;;;;11.00;102779.00;;;;4969457;28;20203;-77
2022/03/24 06:24:17;;;;;;;15.35;9.73;;;;;11.00;102785.00;;;;4969021;28;20742;-76
2022/03/24 06:26:45;;;;;;;15.30;8.80;;;;;11.00;102787.00;;;;4962588;28;20260;-75
2022/03/24 06:29:13;;;;;;;17.58;9.63;;;;;11.10;102793.00;;;;4969316;28;20216;-76
2022/03/24 06:31:40;;;;;;;15.52;9.00;;;;;11.10;102790.00;;;;4986073;28;20273;-76
2022/03/24 06:34:08;;;;;;;14.43;9.30;;;;;11.20;102788.00;;;;4970883;28;20232;-76
2022/03/24 06:36:36;;;;;;;14.05;9.60;;;;;11.20;102793.00;;;;4972099;28;20777;-76
2022/03/24 06:39:03;;;;;;;15.48;9.88;;;;;11.30;102790.00;;;;4971779;28;20222;-76
2022/03/24 06:41:32;;;;;;;17.08;10.05;;;;;11.30;102792.00;;;;4971575;28;20206;-76
2022/03/24 06:43:59;;;;;;;13.23;9.07;;;;;11.40;102799.00;;;;4971398;28;20669;-75
2022/03/24 06:46:27;;;;;;;15.25;10.00;;;;;11.50;102805.00;;;;4964557;28;20194;-75
2022/03/24 06:48:55;;;;;;;14.40;9.55;;;;;11.50;102804.00;;;;4982912;28;20208;-76
2022/03/24 06:51:23;;;;;;;16.83;9.98;;;;;11.60;102802.00;;;;4969881;28;20226;-76
2022/03/24 06:53:50;;;;;;;15.05;9.95;;;;;11.70;102803.00;;;;4970743;28;20625;-75
2022/03/24 06:56:18;;;;;;;15.48;10.20;;;;;11.80;102798.00;;;;4970206;28;20665;-75
2022/03/24 06:58:46;;;;;;;15.85;10.15;;;;;11.80;102799.00;;;;4969407;28;20206;-75
2022/03/24 07:01:14;;;;;;;16.25;9.85;;;;;11.90;102798.00;;;;4970693;28;20206;-75
2022/03/24 07:03:42;;;;;;;16.02;10.75;;;;;12.00;102794.00;;;;4970063;28;20209;-74
2022/03/24 07:06:09;;;;;;;16.45;10.55;;;;;12.10;102802.00;;;;4970256;28;20553;-75
2022/03/24 07:08:37;;;;;;;14.68;10.55;;;;;12.20;102797.00;;;;4971412;28;20221;-75
2022/03/24 07:11:04;;;;;;;17.42;11.25;;;;;12.30;102801.00;;;;4969386;28;20202;-75
2022/03/24 07:13:32;;;;;;;16.42;10.65;;;;;12.40;102800.00;;;;4970508;28;20683;-76
2022/03/24 07:16:01;;;;;;;18.35;11.18;;;;;12.50;102802.00;;;;4975048;28;20246;-75
2022/03/24 07:18:28;;;;;;;16.15;10.98;;;;;12.60;102800.00;;;;4989874;28;20198;-75
2022/03/24 07:20:55;;;;;;;17.42;10.77;;;;;12.70;102797.00;;;;4990049;28;20197;-76
2022/03/24 07:23:23;;;;;;;16.70;11.35;;;;;12.90;102799.00;;;;4989681;28;20209;-75
2022/03/24 07:25:50;;;;;;;19.30;11.88;;;;;13.00;102797.00;;;;4989283;28;20256;-75
2022/03/24 07:28:18;;;;;;;19.75;11.88;;;;;13.10;102809.00;;;;4989640;28;20291;-75
2022/03/24 07:30:50;;;;;;;17.67;10.50;;;;;13.20;102806.00;;;;4989752;28;20205;-75
2022/03/24 07:33:20;;;;;;;19.85;11.20;;;;;13.30;102809.00;;;;4989848;28;20288;-75
2022/03/24 07:35:47;;;;;;;14.65;10.45;;;;;13.40;102816.00;;;;4990697;28;20229;-75
2022/03/24 07:38:16;;;;;;;16.30;9.95;;;;;13.60;102809.00;;;;4989560;28;20198;-75
2022/03/24 07:40:43;;;;;;;16.55;11.27;;;;;13.70;102815.00;;;;4990148;28;20202;-75
2022/03/24 07:43:10;;;;;;;19.98;11.55;;;;;13.80;102814.00;;;;4990027;28;20299;-75
2022/03/24 07:45:38;;;;;;;17.52;11.63;;;;;13.90;102821.00;;;;4990197;28;20599;-75
2022/03/24 07:48:12;;;;;;;17.95;11.93;;;;;14.00;102829.00;;;;4990045;28;20202;-75
2022/03/24 07:50:42;;;;;;;16.02;10.85;;;;;14.20;102825.00;;;;4983075;28;20195;-75
2022/03/24 07:53:29;;;;;;;16.40;10.43;;;;;14.30;102823.00;;;;4968395;28;20285;-75
2022/03/24 07:55:58;;;;;;;17.05;11.13;;;;;14.50;102829.00;;;;4963156;28;20319;-75
2022/03/24 07:58:26;;;;;;;15.55;10.25;;;;;14.60;102825.00;;;;4970410;28;20250;-75
2022/03/24 08:00:56;;;;;;;16.85;10.98;;;;;14.70;102822.00;;;;4970644;28;20198;-75
2022/03/24 08:03:24;;;;;;;15.88;10.95;;;;;14.90;102827.00;;;;4971217;28;20564;-75
2022/03/24 08:05:53;;;;;;;15.65;11.00;;;;;15.00;102831.00;;;;4950938;28;20254;-75
2022/03/24 08:08:21;;;;;;;16.05;11.00;;;;;15.20;102834.00;;;;4979798;28;20225;-75
2022/03/24 08:10:50;;;;;;;14.65;9.98;;;;;15.30;102829.00;;;;4989673;28;20316;-75
2022/03/24 08:13:19;;;;;;;16.52;11.07;;;;;15.50;102829.00;;;;4988943;28;20297;-75
2022/03/24 08:15:47;;;;;;;15.13;10.23;;;;;15.60;102825.00;;;;4989592;28;20237;-75
2022/03/24 08:18:16;;;;;;;14.65;10.30;;;;;15.80;102832.00;;;;4988765;28;20694;-75
2022/03/24 08:20:45;;;;;;;17.90;11.95;;;;;16.00;102830.00;;;;4989683;28;20206;-75
2022/03/24 08:23:13;;;;;;;14.82;10.80;;;;;16.10;102833.00;;;;4988574;28;20260;-75
2022/03/24 08:25:44;;;;;;;17.48;11.13;;;;;16.30;102838.00;;;;4989866;28;20267;-75
2022/03/24 08:28:13;;;;;;;15.65;9.90;;;;;16.50;102836.00;;;;4988382;28;20237;-75
2022/03/24 08:30:40;;;;;;;16.55;10.70;;;;;16.70;102838.00;;;;4988616;28;20581;-75
2022/03/24 08:33:10;;;;;;;14.75;11.23;;;;;16.90;102842.00;;;;4988097;28;20660;-75
2022/03/24 08:35:38;;;;;;;17.40;11.70;;;;;17.10;102844.00;;;;4988384;28;20268;-75
2022/03/24 08:38:05;;;;;;;16.17;11.00;;;;;17.20;102843.00;;;;4988825;28;20696;-75
2022/03/24 08:40:34;;;;;;;12.90;10.10;;;;;17.40;102846.00;;;;4978808;28;20202;-75
2022/03/24 08:43:03;;;;;;;14.30;10.15;;;;;17.60;102843.00;;;;4950055;28;20234;-75
2022/03/24 08:45:31;;;;;;;12.32;9.25;;;;;17.80;102847.00;;;;4950059;28;20211;-75
2022/03/24 08:47:58;;;;;;;10.27;7.97;;;;;17.90;102848.00;;;;4949217;29;20202;-75
2022/03/24 08:50:26;;;;;;;13.68;9.27;;;;;18.10;102846.00;;;;4949578;29;20207;-75
2022/03/24 08:52:53;;;;;;;12.93;9.02;;;;;18.30;102853.00;;;;4949593;29;20317;-76
2022/03/24 08:55:21;;;;;;;14.00;10.32;;;;;18.40;102853.00;;;;4966664;28;20309;-75
2022/03/24 08:57:50;;;;;;;12.13;8.60;;;;;18.60;102859.00;;;;4971473;28;20269;-75
2022/03/24 09:00:18;;;;;;;13.20;9.32;;;;;18.70;102857.00;;;;4961261;28;20682;-75
2022/03/24 09:02:47;;;;;;;14.25;9.52;;;;;18.90;102862.00;;;;4968504;28;20202;-75
2022/03/24 09:05:16;;;;;;;11.70;8.88;;;;;19.00;102863.00;;;;4976475;28;20202;-75
2022/03/24 09:07:43;;;;;;;13.73;10.02;;;;;19.20;102869.00;;;;4992929;28;20582;-75
2022/03/24 09:10:13;;;;;;;14.43;9.68;;;;;19.40;102870.00;;;;4978646;28;20264;-75
2022/03/24 09:12:44;;;;;;;16.35;9.30;;;;;19.50;102867.00;;;;4973911;28;20402;-75
2022/03/24 09:15:14;;;;;;;14.68;9.73;;;;;19.60;102875.00;;;;4978537;28;20599;-75
2022/03/24 09:17:42;;;;;;;13.80;10.25;;;;;19.80;102868.00;;;;4992563;28;20228;-75
2022/03/24 09:20:12;;;;;;;15.00;9.88;;;;;19.90;102876.00;;;;4991937;28;20229;-75
2022/03/24 09:22:40;;;;;;;11.98;9.90;;;;;20.00;102872.00;;;;4992592;28;20200;-75
2022/03/24 09:25:09;;;;;;;12.75;9.88;;;;;20.20;102871.00;;;;4992038;28;20207;-75
2022/03/24 09:27:37;;;;;;;15.88;11.00;;;;;20.30;102873.00;;;;4991876;28;20212;-75
2022/03/24 09:30:07;;;;;;;14.77;10.18;;;;;20.40;102874.00;;;;4992656;28;20201;-75
2022/03/24 09:32:35;;;;;;;13.55;9.50;;;;;20.50;102874.00;;;;4991668;28;20198;-75
2022/03/24 09:35:04;;;;;;;14.40;10.02;;;;;20.70;102874.00;;;;4991496;28;20695;-75
2022/03/24 09:37:33;;;;;;;12.93;10.18;;;;;20.80;102871.00;;;;4991840;28;20299;-75
2022/03/24 09:40:02;;;;;;;15.02;9.90;;;;;20.90;102864.00;;;;4991773;28;20672;-75
2022/03/24 09:42:30;;;;;;;15.02;10.73;;;;;21.00;102866.00;;;;4991703;28;20320;-75
2022/03/24 09:45:00;;;;;;;16.02;11.77;;;;;21.20;102869.00;;;;4991320;28;20205;-75
2022/03/24 09:47:28;;;;;;;16.17;10.68;;;;;21.30;102867.00;;;;4991503;28;20312;-75
2022/03/24 09:49:57;;;;;;;17.85;10.75;;;;;21.40;102869.00;;;;4992119;28;20221;-75
2022/03/24 09:52:26;;;;;;;15.00;10.35;;;;;21.60;102869.00;;;;4988834;28;20201;-76
2022/03/24 09:54:54;;;;;;;14.38;10.20;;;;;21.70;102866.00;;;;4972785;28;20410;-75
2022/03/24 09:57:22;;;;;;;15.88;10.23;;;;;21.80;102861.00;;;;4972178;28;20232;-75
2022/03/24 09:59:52;;;;;;;13.75;10.35;;;;;21.90;102862.00;;;;4972842;28;20206;-77
2022/03/24 10:02:20;;;;;;;17.73;11.35;;;;;22.10;102866.00;;;;4971845;28;20210;-76
2022/03/24 10:04:49;;;;;;;17.05;10.98;;;;;22.20;102866.00;;;;4971041;28;20198;-76
2022/03/24 10:07:19;;;;;;;18.23;10.73;;;;;22.30;102863.00;;;;4972483;28;20249;-76
2022/03/24 10:09:48;;;;;;;16.58;11.02;;;;;22.40;102868.00;;;;4972176;28;20214;-76
2022/03/24 10:12:21;;;;;;;18.00;11.05;;;;;22.50;102878.00;;;;4972139;28;20209;-75
2022/03/24 10:14:58;;;;;;;19.33;10.57;;;;;22.50;102871.00;;;;4972664;28;20615;-75
2022/03/24 10:17:25;;;;;;;15.20;9.80;;;;;22.70;102869.00;;;;4971457;28;20202;-75
2022/03/24 10:20:05;;;;;;;19.73;10.05;;;;;22.70;102868.00;;;;4972050;28;20210;-76
2022/03/24 10:22:34;;;;;;;17.23;10.65;;;;;22.80;102861.00;;;;4972217;28;20233;-76
2022/03/24 10:25:03;;;;;;;13.65;9.70;;;;;22.90;102867.00;;;;4991421;28;20260;-76
2022/03/24 10:27:31;;;;;;;16.65;9.30;;;;;23.00;102866.00;;;;4991136;28;20283;-75
2022/03/24 10:29:59;;;;;;;16.60;8.77;;;;;23.10;102868.00;;;;4991536;28;20209;-75
2022/03/24 10:32:31;;;;;;;16.95;8.75;;;;;23.10;102866.00;;;;4991168;28;20213;-76
2022/03/24 10:35:07;;;;;;;18.25;10.88;;;;;23.20;102870.00;;;;4991682;28;20264;-75
2022/03/24 10:37:36;;;;;;;12.73;9.32;;;;;23.30;102866.00;;;;4991153;28;20193;-76
2022/03/24 10:40:06;;;;;;;14.55;9.60;;;;;23.40;102868.00;;;;4991146;28;20240;-75
2022/03/24 10:42:35;;;;;;;16.05;9.70;;;;;23.50;102859.00;;;;4984256;28;20657;-75
2022/03/24 10:45:09;;;;;;;15.43;9.55;;;;;23.60;102863.00;;;;4971743;28;20206;-75
2022/03/24 10:47:39;;;;;;;15.82;10.50;;;;;23.70;102863.00;;;;4971631;28;20243;-75
2022/03/24 10:50:30;;;;;;;14.90;9.43;;;;;23.70;102866.00;;;;4971693;28;20257;-75
2022/03/24 10:53:02;;;;;;;18.08;10.02;;;;;23.80;102868.00;;;;4971465;28;20579;-75
2022/03/24 10:55:55;;;;;;;14.10;9.55;;;;;23.90;102868.00;;;;4972043;28;20229;-75
2022/03/24 10:58:26;;;;;;;14.18;9.43;;;;;24.00;102867.00;;;;4986555;28;20279;-75
2022/03/24 11:00:55;;;;;;;17.73;9.00;;;;;24.00;102861.00;;;;4991678;28;20202;-75
2022/03/24 11:03:23;;;;;;;22.50;8.88;;;;;24.10;102866.00;;;;4991230;28;20209;-76
2022/03/24 11:05:50;;;;;;;12.90;8.35;;;;;24.20;102861.00;;;;4952464;29;20206;-75
2022/03/24 11:08:20;;;;;;;11.45;8.07;;;;;24.20;102862.00;;;;4951476;29;20210;-75
2022/03/24 11:10:49;;;;;;;13.82;7.85;;;;;24.30;102859.00;;;;4952480;29;20266;-75
2022/03/24 11:13:26;;;;;;;12.40;9.23;;;;;24.30;102859.00;;;;4951747;29;20202;-76
2022/03/24 11:15:53;;;;;;;11.27;8.27;;;;;24.40;102855.00;;;;4971508;28;20266;-75
2022/03/24 11:18:24;;;;;;;13.90;7.68;;;;;24.40;102855.00;;;;4951220;28;20210;-76
2022/03/24 11:20:53;;;;;;;12.95;8.63;;;;;24.50;102856.00;;;;4952710;29;20234;-75
2022/03/24 11:23:39;;;;;;;11.65;7.88;;;;;24.50;102853.00;;;;4951914;28;20211;-76
2022/03/24 11:26:08;;;;;;;13.85;6.90;;;;;24.60;102857.00;;;;4951357;28;20677;-76
2022/03/24 11:28:36;;;;;;;12.13;7.32;;;;;24.70;102855.00;;;;4951583;28;20211;-76
2022/03/24 11:31:11;;;;;;;13.63;7.45;;;;;24.60;102858.00;;;;4959882;28;20217;-78
2022/03/24 11:33:47;;;;;;;14.25;8.20;;;;;24.70;102848.00;;;;4973301;28;20206;-77
2022/03/24 11:36:16;;;;;;;12.32;7.65;;;;;24.80;102849.00;;;;4970647;28;20234;-77
2022/03/24 11:38:49;;;;;;;11.40;7.10;;;;;24.80;102839.00;;;;4971686;28;20250;-77
2022/03/24 11:41:23;;;;;;;11.77;6.25;;;;;24.80;102842.00;;;;4971230;28;20202;-77
2022/03/24 11:43:54;;;;;;;10.65;8.30;;;;;24.90;102846.00;;;;4971543;28;20268;-77
2022/03/24 11:46:29;;;;;;;14.20;8.02;;;;;24.90;102836.00;;;;4971206;28;20201;-76
2022/03/24 11:49:16;;;;;;;9.70;7.53;;;;;24.90;102845.00;;;;4981540;28;20209;-77
2022/03/24 11:51:44;;;;;;;14.27;7.40;;;;;25.00;102836.00;;;;4989727;28;20212;-76
2022/03/24 11:54:24;;;;;;;14.57;8.35;;;;;25.00;102832.00;;;;4981868;28;21031;-76
2022/03/24 11:57:11;;;;;;;13.73;7.97;;;;;25.10;102838.00;;;;4971652;28;20284;-77
2022/03/24 11:59:38;;;;;;;10.48;7.57;;;;;25.20;102831.00;;;;4970291;28;20198;-76
2022/03/24 12:02:17;;;;;;;11.20;7.40;;;;;25.10;102831.00;;;;4970669;28;20205;-75
2022/03/24 12:04:48;;;;;;;10.93;7.78;;;;;25.20;102836.00;;;;4971652;28;20202;-75
2022/03/24 12:07:17;;;;;;;10.15;6.18;;;;;25.30;102819.00;;;;4989446;28;20210;-77